首页
METAR-TAF:

METAR-TAF

机场 :

倫敦城市機場

伦敦, 英格兰

纬度: 51-30N, 经度: 000-03E, 海拔: 5米

当前天气观测

该预报发布于26分钟前的01:20 UTC
风速7节,风向东南,在东转东南之间变化
温度 9°C
湿度 43%
气压 1013 hPa
能见度10公里或以上

METAR: EGLC 080120Z AUTO 14007KT 110V180 9999 NCD 09/M03 Q1013

时间: 02:46 (01:46 UTC)

预报

该预报发布于8小时和52分钟前的16:54 UTC
预报有效从07日的 18点(UTC)到 07日的 21点(UTC)
风速10节,风向西南
能见度10公里或以上
少量云层高于4500英尺

TAF: EGLC 071654Z 0718/0721 22010KT 9999 FEW045

超过4000个机场的气象观测和天气预报(METAR&TAF报告)。

可查询的气象台以黄色和红色小点在地图上表示。

将鼠标移到小点上方,可查看气象台名称。

然后点击查看天气观测和预报。

如需切换地图:点击带黑十字的绿色按钮放大地图;点击带横线的绿色按钮缩小地图;或者点击绿色箭头查看邻近地区的地图。


METAR-TAF: